KMLB/MLB METAR and TAF weather

Enter ICAO airport designator
Station Type Date Time Source
KMLB METAR 2019/08/24 21:53 UTC NOAA

KMLB 242153Z 05010KT 10SM SCT021 31/24 A2991 RMK AO2 SLP126 T03060244


Station Type Date Time Source
KMLB Decoded METAR 2019/08/24 21:53 UTC NOAA

Station name not available
Aug 24, 2019 - 05:53 PM EDT / 2019.08.24 2153 UTC
Wind: from the NE (050 degrees) at 12 MPH (10 KT):0
Visibility: 10 mile(s):0
Sky conditions: partly cloudy
Temperature: 87.1 F (30.6 C)
Heat index: 97.3 F (36.3 C):1
Dew Point: 75.9 F (24.4 C)
Relative Humidity: 69%
Pressure (altimeter): 29.91 in. Hg (1012 hPa)
ob: KMLB 242153Z 05010KT 10SM SCT021 31/24 A2991 RMK AO2 SLP126 T03060244
cycle: 22

Station Type Date Time Source
KMLB TAF 2019/08/24 18:24 UTC NOAA

TAF KMLB 241721Z 2418/2518 05011KT P6SM SCT025 SCT250
FM250100 VRB05KT P6SM SCT020 SCT200
FM251400 03008KT P6SM SCT020 SCT200

Example: see airport list